createdAt,value
2023-03-19T00:01:32.829Z,49.51
2023-03-19T00:05:36.147Z,49.45
2023-03-19T00:09:39.650Z,50.00
2023-03-19T00:13:44.075Z,50.44
2023-03-19T00:17:47.134Z,50.61
2023-03-19T00:21:50.247Z,50.84
2023-03-19T00:25:55.603Z,50.74
2023-03-19T00:30:00.361Z,51.24
2023-03-19T00:34:03.642Z,51.26
2023-03-19T00:38:07.043Z,51.14
2023-03-19T00:42:10.571Z,51.66
2023-03-19T00:46:15.827Z,52.09
2023-03-19T00:50:20.154Z,52.01
2023-03-19T00:54:23.171Z,52.63
2023-03-19T00:58:26.409Z,52.40
2023-03-19T01:02:32.105Z,52.60
2023-03-19T01:06:35.139Z,52.41
2023-03-19T01:10:38.238Z,52.54
2023-03-19T01:14:41.580Z,52.93
2023-03-19T01:18:46.680Z,52.66
2023-03-19T01:22:49.734Z,53.19
2023-03-19T01:26:53.024Z,53.15
2023-03-19T01:31:07.941Z,53.04
2023-03-19T01:35:39.769Z,53.22
2023-03-19T01:39:43.198Z,53.34
2023-03-19T01:43:48.888Z,53.38
2023-03-19T01:48:22.254Z,53.60
2023-03-19T01:52:37.948Z,53.54
2023-03-19T01:57:09.373Z,53.81
2023-03-19T02:01:51.802Z,53.89
2023-03-19T02:05:57.802Z,54.35
2023-03-19T02:10:04.593Z,54.42
2023-03-19T02:14:09.702Z,54.96
2023-03-19T02:18:14.222Z,54.55
2023-03-19T02:22:22.725Z,54.83
2023-03-19T02:26:30.920Z,55.18
2023-03-19T02:30:39.336Z,55.25
2023-03-19T02:34:46.611Z,55.43
2023-03-19T02:38:50.916Z,55.50
2023-03-19T02:42:55.342Z,55.70
2023-03-19T02:46:59.685Z,55.84
2023-03-19T02:51:02.921Z,55.97
2023-03-19T02:55:08.084Z,55.90
2023-03-19T02:59:13.336Z,56.07
2023-03-19T03:03:17.280Z,56.19
2023-03-19T03:07:20.996Z,56.51
2023-03-19T03:11:24.116Z,56.62
2023-03-19T03:15:29.170Z,56.70
2023-03-19T03:19:32.512Z,56.58
2023-03-19T03:23:35.557Z,56.77
2023-03-19T03:27:39.298Z,57.11
2023-03-19T03:31:43.787Z,57.42
2023-03-19T03:35:47.253Z,57.16
2023-03-19T03:39:51.019Z,57.30
2023-03-19T03:43:55.080Z,57.56
2023-03-19T03:47:59.540Z,57.69
2023-03-19T03:52:02.612Z,58.09
2023-03-19T03:56:06.600Z,57.92
2023-03-19T04:00:11.197Z,57.87
2023-03-19T04:04:18.740Z,58.00
2023-03-19T04:08:21.901Z,58.09
2023-03-19T04:12:25.066Z,58.35
2023-03-19T04:16:28.809Z,58.33
2023-03-19T04:20:34.232Z,58.44
2023-03-19T04:24:37.839Z,58.91
2023-03-19T04:28:41.105Z,58.86
2023-03-19T04:32:45.461Z,58.83
2023-03-19T04:36:50.942Z,59.25
2023-03-19T04:40:54.314Z,58.91
2023-03-19T04:44:57.760Z,59.11
2023-03-19T04:49:01.501Z,59.28
2023-03-19T04:53:08.001Z,59.36
2023-03-19T04:57:12.534Z,59.44
2023-03-19T05:01:18.303Z,59.35
2023-03-19T05:05:34.658Z,59.34
2023-03-19T05:09:46.246Z,59.60
2023-03-19T05:13:50.395Z,60.29
2023-03-19T05:17:53.841Z,59.65
2023-03-19T05:22:06.401Z,59.64
2023-03-19T05:26:11.676Z,59.82
2023-03-19T05:30:50.343Z,60.13
2023-03-19T05:34:58.448Z,60.08
2023-03-19T05:39:03.991Z,59.91
2023-03-19T05:43:13.338Z,60.02
2023-03-19T05:47:17.366Z,60.15
2023-03-19T05:51:26.483Z,60.22
2023-03-19T05:55:29.988Z,59.84
2023-03-19T05:59:40.785Z,60.45
2023-03-19T06:04:15.987Z,60.55
2023-03-19T06:08:20.154Z,60.64
2023-03-19T06:12:33.430Z,60.50
2023-03-19T06:17:10.298Z,60.55
2023-03-19T06:21:14.479Z,60.52
2023-03-19T06:25:17.689Z,60.76
2023-03-19T06:29:20.775Z,60.51
2023-03-19T06:33:33.757Z,60.48
2023-03-19T06:37:37.794Z,60.48
2023-03-19T06:41:41.996Z,60.33
2023-03-19T06:45:50.719Z,60.35
2023-03-19T06:49:55.397Z,60.34
2023-03-19T06:53:58.419Z,60.43
2023-03-19T06:58:01.460Z,60.17
2023-03-19T07:02:05.588Z,60.07
2023-03-19T07:06:10.322Z,60.20
2023-03-19T07:10:13.812Z,60.06
2023-03-19T07:14:16.829Z,59.81
2023-03-19T07:18:19.870Z,59.74
2023-03-19T07:22:24.267Z,59.38
2023-03-19T07:26:27.741Z,59.38
2023-03-19T07:30:30.836Z,59.16
2023-03-19T07:34:33.891Z,58.99
2023-03-19T07:38:38.542Z,58.43
2023-03-19T07:42:44.950Z,58.27
2023-03-19T07:46:48.880Z,58.12
2023-03-19T07:50:52.657Z,57.60
2023-03-19T07:54:57.407Z,57.46
2023-03-19T07:59:00.815Z,57.24
2023-03-19T08:03:03.876Z,57.02
2023-03-19T08:07:07.176Z,56.99
2023-03-19T08:11:11.818Z,56.69
2023-03-19T08:15:14.827Z,56.50
2023-03-19T08:19:18.765Z,56.51
2023-03-19T08:23:21.979Z,56.48
2023-03-19T08:27:26.705Z,56.20
2023-03-19T08:31:30.504Z,55.65
2023-03-19T08:35:33.590Z,55.13
2023-03-19T08:39:36.630Z,55.12
2023-03-19T08:43:41.322Z,54.59
2023-03-19T08:47:44.926Z,54.21
2023-03-19T08:51:48.466Z,54.38
2023-03-19T08:55:55.199Z,53.54
2023-03-19T08:59:59.663Z,53.38
2023-03-19T09:04:02.653Z,53.67
2023-03-19T09:08:05.998Z,53.16
2023-03-19T09:12:10.496Z,53.02
2023-03-19T09:16:15.010Z,52.90
2023-03-19T09:20:18.252Z,52.73
2023-03-19T09:24:21.472Z,51.91
2023-03-19T09:28:25.764Z,52.37
2023-03-19T09:32:30.261Z,52.29
2023-03-19T09:36:33.279Z,51.94
2023-03-19T09:40:40.084Z,51.45
2023-03-19T09:44:46.234Z,51.37
2023-03-19T09:48:57.535Z,51.47
2023-03-19T09:53:06.815Z,50.78
2023-03-19T09:57:13.140Z,50.56
2023-03-19T10:01:26.726Z,50.76
2023-03-19T10:05:43.558Z,50.42
2023-03-19T10:10:00.051Z,50.19
2023-03-19T10:14:19.193Z,50.22
2023-03-19T10:18:27.170Z,50.18
2023-03-19T10:22:37.105Z,50.25
2023-03-19T10:26:40.764Z,49.79
2023-03-19T10:30:49.667Z,49.10
2023-03-19T10:34:54.049Z,48.70
2023-03-19T10:38:58.597Z,47.99
2023-03-19T10:43:14.594Z,48.24
2023-03-19T10:47:20.073Z,48.51
2023-03-19T10:51:27.084Z,48.17
2023-03-19T10:55:33.263Z,47.83
2023-03-19T10:59:39.352Z,48.10
2023-03-19T11:03:52.753Z,47.82
2023-03-19T11:08:01.283Z,47.97
2023-03-19T11:12:17.970Z,47.82
2023-03-19T11:16:21.032Z,47.64
2023-03-19T11:20:28.669Z,47.76
2023-03-19T11:24:37.540Z,47.38
2023-03-19T11:28:44.717Z,47.34
2023-03-19T11:33:21.149Z,46.69
2023-03-19T11:37:32.588Z,46.45
2023-03-19T11:41:52.492Z,46.27
2023-03-19T11:46:05.146Z,46.30
2023-03-19T11:50:20.386Z,46.14
2023-03-19T11:54:28.912Z,46.28
2023-03-19T11:58:57.950Z,45.90
2023-03-19T12:03:37.975Z,45.86
2023-03-19T12:07:47.541Z,46.13
2023-03-19T12:11:54.828Z,45.73
2023-03-19T12:16:07.766Z,45.26
2023-03-19T12:20:38.275Z,45.43
2023-03-19T12:24:58.662Z,45.09
2023-03-19T12:29:09.854Z,45.12
2023-03-19T12:33:30.373Z,45.06
2023-03-19T12:37:40.529Z,45.00
2023-03-19T12:41:46.216Z,44.39
2023-03-19T12:45:53.865Z,44.88
2023-03-19T12:50:02.840Z,44.80
2023-03-19T12:54:13.678Z,45.01
2023-03-19T12:58:22.411Z,44.74
2023-03-19T13:02:32.298Z,44.19
2023-03-19T13:06:38.276Z,44.49
2023-03-19T13:10:42.693Z,44.08
2023-03-19T13:14:53.739Z,43.85
2023-03-19T13:19:05.607Z,44.13
2023-03-19T13:23:13.746Z,44.24
2023-03-19T13:27:22.497Z,44.14
2023-03-19T13:31:27.588Z,44.01
2023-03-19T13:35:38.858Z,44.26
2023-03-19T13:39:44.183Z,44.24
2023-03-19T13:43:55.926Z,43.59
2023-03-19T13:48:01.145Z,44.13
2023-03-19T13:52:48.128Z,43.78
2023-03-19T13:57:07.825Z,43.25
2023-03-19T14:01:34.313Z,43.06
2023-03-19T14:05:37.858Z,43.54
2023-03-19T14:09:43.505Z,43.36
2023-03-19T14:13:50.470Z,43.60
2023-03-19T14:18:02.344Z,43.49
2023-03-19T14:22:21.787Z,43.50
2023-03-19T14:26:28.875Z,43.66
2023-03-19T14:30:36.569Z,43.61
2023-03-19T14:34:43.880Z,43.55
2023-03-19T14:38:51.866Z,43.31
2023-03-19T14:43:02.091Z,43.40
2023-03-19T14:47:20.597Z,43.35
2023-03-19T14:51:56.762Z,43.45
2023-03-19T14:56:10.786Z,42.91
2023-03-19T15:00:17.498Z,42.88
2023-03-19T15:04:22.930Z,42.66
2023-03-19T15:14:26.150Z,42.44
2023-03-19T15:18:29.813Z,42.64
2023-03-19T15:22:34.541Z,42.66
2023-03-19T15:26:39.377Z,42.37
2023-03-19T15:30:54.902Z,42.37
2023-03-19T15:35:03.446Z,42.88
2023-03-19T15:39:10.463Z,42.55
2023-03-19T15:43:14.612Z,42.75
2023-03-19T15:47:22.952Z,42.74
2023-03-19T15:51:27.374Z,42.89
2023-03-19T15:55:30.831Z,42.79
2023-03-19T15:59:33.937Z,42.75
2023-03-19T16:03:42.641Z,43.01
2023-03-19T16:07:45.899Z,43.44
2023-03-19T16:11:49.181Z,43.53
2023-03-19T16:15:57.120Z,43.53
2023-03-19T16:20:04.807Z,43.33
2023-03-19T16:24:15.847Z,43.37
2023-03-19T16:28:23.802Z,43.48
2023-03-19T16:32:28.404Z,43.30
2023-03-19T16:36:34.075Z,43.74
2023-03-19T16:40:47.946Z,43.63
2023-03-19T16:44:50.890Z,44.03
2023-03-19T16:48:53.791Z,43.91
2023-03-19T16:52:59.614Z,44.08
2023-03-19T16:57:02.613Z,43.93
2023-03-19T17:01:14.340Z,43.76
2023-03-19T17:05:17.976Z,43.89
2023-03-19T17:09:23.452Z,44.04
2023-03-19T17:13:30.128Z,44.41
2023-03-19T17:17:33.432Z,44.32
2023-03-19T17:21:36.627Z,44.47
2023-03-19T17:25:41.712Z,44.48
2023-03-19T17:29:44.814Z,44.68
2023-03-19T17:33:48.045Z,45.18
2023-03-19T17:37:52.738Z,45.62
2023-03-19T17:41:57.514Z,46.03
2023-03-19T17:46:00.651Z,46.46
2023-03-19T17:50:03.704Z,46.43
2023-03-19T17:54:11.608Z,46.56
2023-03-19T17:58:18.356Z,46.74
2023-03-19T18:02:26.968Z,47.04
2023-03-19T18:06:34.521Z,46.97
2023-03-19T18:10:37.547Z,47.20
2023-03-19T18:14:41.976Z,47.66
2023-03-19T18:18:45.159Z,48.00
2023-03-19T18:22:48.406Z,47.96
2023-03-19T18:26:51.381Z,47.72
2023-03-19T18:30:56.052Z,47.93
2023-03-19T18:34:59.448Z,47.82
2023-03-19T18:39:02.651Z,47.81
2023-03-19T18:43:05.577Z,47.91
2023-03-19T18:47:14.895Z,49.50
2023-03-19T18:51:17.860Z,50.37
2023-03-19T18:55:24.267Z,50.87
2023-03-19T18:59:30.405Z,50.96
2023-03-19T19:03:38.286Z,50.97
2023-03-19T19:07:41.229Z,51.26
2023-03-19T19:11:47.609Z,51.35
2023-03-19T19:15:51.273Z,51.81
2023-03-19T19:19:55.857Z,51.87
2023-03-19T19:23:58.852Z,51.57
2023-03-19T19:28:04.214Z,51.63
2023-03-19T19:32:17.277Z,51.95
2023-03-19T19:36:24.746Z,51.92
2023-03-19T19:40:30.524Z,52.04
2023-03-19T19:44:33.558Z,52.02
2023-03-19T19:48:37.137Z,52.11
2023-03-19T19:52:41.411Z,52.32
2023-03-19T19:56:44.462Z,52.34
2023-03-19T20:01:02.377Z,52.19
2023-03-19T20:05:07.319Z,51.80
2023-03-19T20:09:11.616Z,51.86
2023-03-19T20:13:24.951Z,52.23
2023-03-19T20:17:28.298Z,51.80
2023-03-19T20:21:32.078Z,51.59
2023-03-19T20:25:37.681Z,51.76
2023-03-19T20:29:41.506Z,51.96
2023-03-19T20:33:44.688Z,51.93
2023-03-19T20:37:47.858Z,52.02
2023-03-19T20:41:55.277Z,52.18
2023-03-19T20:45:59.581Z,52.47
2023-03-19T20:50:02.746Z,52.74
2023-03-19T20:54:06.573Z,52.83
2023-03-19T20:58:17.651Z,53.02
2023-03-19T21:02:22.741Z,52.98
2023-03-19T21:06:26.317Z,52.87
2023-03-19T21:10:32.788Z,53.19
2023-03-19T21:14:37.184Z,53.11
2023-03-19T21:18:40.288Z,53.30
2023-03-19T21:22:43.434Z,53.24
2023-03-19T21:26:47.109Z,53.13
2023-03-19T21:30:52.309Z,53.50
2023-03-19T21:34:55.974Z,53.59
2023-03-19T21:38:58.894Z,53.85
2023-03-19T21:43:03.894Z,53.84
2023-03-19T21:47:13.084Z,54.00
2023-03-19T21:51:17.328Z,54.06
2023-03-19T21:55:20.834Z,54.18
2023-03-19T21:59:28.109Z,54.39
2023-03-19T22:03:32.507Z,54.83
2023-03-19T22:07:36.374Z,55.10
2023-03-19T22:11:41.897Z,55.84
2023-03-19T22:15:44.947Z,56.17
2023-03-19T22:19:49.247Z,56.49
2023-03-19T22:23:53.010Z,56.63
2023-03-19T22:27:56.009Z,56.54
2023-03-19T22:31:59.236Z,56.52
2023-03-19T22:36:03.937Z,56.26
2023-03-19T22:40:07.827Z,56.42
2023-03-19T22:44:24.175Z,56.55
2023-03-19T22:48:28.362Z,56.65
2023-03-19T22:52:33.210Z,56.64
2023-03-19T22:56:36.149Z,56.47
2023-03-19T23:00:39.514Z,56.95
2023-03-19T23:04:42.713Z,57.04
2023-03-19T23:08:47.163Z,57.14
2023-03-19T23:12:50.138Z,57.19
2023-03-19T23:16:53.746Z,57.31
2023-03-19T23:20:57.792Z,57.35
2023-03-19T23:25:02.461Z,57.61
2023-03-19T23:29:07.845Z,57.57
2023-03-19T23:33:12.528Z,57.48
2023-03-19T23:37:15.759Z,57.66
2023-03-19T23:41:23.878Z,57.43
2023-03-19T23:45:34.300Z,57.76
2023-03-19T23:49:37.828Z,58.14
2023-03-19T23:53:42.048Z,58.11
2023-03-19T23:57:47.369Z,58.13
